Time;durP1;ratioP1;P1;durP2;ratioP2;P2;SDS_P1;SDS_P2;PMS_P1;PMS_P2;Temp;Humidity;BMP_temperature;BMP_pressure;BME280_temperature;BME280_humidity;BME280_pressure;Samples;Min_cycle;Max_cycle;Signal;HPM_P1;HPM_P2
2023/04/16 00:02:17;;;;;;;;;;;15.70;64.20;;;;;;5031945;28;19913;-58
2023/04/16 00:04:43;;;;;;;;;;;15.70;64.30;;;;;;5031384;28;19942;-58
2023/04/16 00:07:08;;;;;;;;;;;15.70;64.20;;;;;;5031449;28;19959;-58
2023/04/16 00:09:33;;;;;;;;;;;15.70;64.20;;;;;;5031270;28;20278;-58
2023/04/16 00:11:59;;;;;;;;;;;15.70;64.10;;;;;;5029947;28;20063;-59
2023/04/16 00:14:24;;;;;;;;;;;15.70;64.00;;;;;;5031495;28;19929;-58
2023/04/16 00:16:50;;;;;;;;;;;15.70;64.00;;;;;;5031313;28;19963;-57
2023/04/16 00:19:15;;;;;;;;;;;15.80;64.00;;;;;;5031123;28;19948;-59
2023/04/16 00:21:41;;;;;;;;;;;15.70;63.90;;;;;;5031211;28;19909;-59
2023/04/16 00:24:06;;;;;;;;;;;15.70;63.80;;;;;;5030992;28;19923;-62
2023/04/16 00:26:32;;;;;;;;;;;15.70;63.80;;;;;;5031072;28;19957;-59
2023/04/16 00:28:57;;;;;;;;;;;15.70;63.80;;;;;;5031235;28;19928;-59
2023/04/16 00:31:27;;;;;;;;;;;15.70;63.80;;;;;;5031466;28;19996;-60
2023/04/16 00:33:52;;;;;;;;;;;15.70;63.80;;;;;;5031375;28;19964;-59
2023/04/16 00:36:17;;;;;;;;;;;15.60;63.60;;;;;;5046658;28;19947;-59
2023/04/16 00:38:43;;;;;;;;;;;15.50;63.60;;;;;;5051156;28;20270;-59
2023/04/16 00:41:08;;;;;;;;;;;15.50;63.70;;;;;;5051078;28;20324;-60
2023/04/16 00:43:34;;;;;;;;;;;15.50;63.70;;;;;;5041538;28;20365;-59
2023/04/16 00:45:59;;;;;;;;;;;15.50;63.70;;;;;;5031033;28;19963;-66
2023/04/16 00:48:26;;;;;;;;;;;15.50;63.70;;;;;;5031254;28;20028;-59
2023/04/16 00:50:54;;;;;;;;;;;15.50;63.80;;;;;;5031194;28;19909;-60
2023/04/16 00:53:19;;;;;;;;;;;15.50;63.80;;;;;;5031100;28;19913;-60
2023/04/16 00:55:45;;;;;;;;;;;15.50;63.70;;;;;;5031065;28;19962;-59
2023/04/16 00:58:10;;;;;;;;;;;15.50;63.70;;;;;;5031458;28;19917;-59
2023/04/16 01:00:35;;;;;;;;;;;15.50;63.70;;;;;;5031305;28;19913;-62
2023/04/16 01:03:01;;;;;;;;;;;15.50;63.70;;;;;;5031425;28;19913;-59
2023/04/16 01:05:26;;;;;;;;;;;15.40;63.50;;;;;;5031010;28;19940;-60
2023/04/16 01:07:52;;;;;;;;;;;15.40;63.50;;;;;;5030992;28;19971;-58
2023/04/16 01:10:17;;;;;;;;;;;15.40;63.50;;;;;;5030889;28;19945;-58
2023/04/16 01:12:43;;;;;;;;;;;15.40;63.40;;;;;;5031299;28;19917;-58
2023/04/16 01:15:10;;;;;;;;;;;15.30;63.50;;;;;;5031132;28;19933;-59
2023/04/16 01:17:35;;;;;;;;;;;15.30;63.60;;;;;;5031393;28;19913;-58
2023/04/16 01:20:00;;;;;;;;;;;15.30;63.70;;;;;;5030850;28;19920;-58
2023/04/16 01:22:27;;;;;;;;;;;15.30;63.80;;;;;;5031230;28;20245;-58
2023/04/16 01:24:52;;;;;;;;;;;15.30;63.80;;;;;;5031022;28;20016;-58
2023/04/16 01:27:17;;;;;;;;;;;15.40;63.80;;;;;;5031013;28;19957;-58
2023/04/16 01:29:43;;;;;;;;;;;15.40;63.80;;;;;;5030608;28;20396;-58
2023/04/16 01:32:08;;;;;;;;;;;15.40;63.80;;;;;;5031256;28;19971;-59
2023/04/16 01:34:34;;;;;;;;;;;15.50;63.80;;;;;;5030568;28;19944;-58
2023/04/16 01:36:59;;;;;;;;;;;15.50;63.80;;;;;;5030893;28;19971;-58
2023/04/16 01:39:25;;;;;;;;;;;15.50;63.70;;;;;;5029323;28;20012;-59
2023/04/16 01:41:50;;;;;;;;;;;15.60;63.60;;;;;;5030843;28;20338;-58
2023/04/16 01:44:16;;;;;;;;;;;15.60;63.60;;;;;;5030530;28;19971;-58
2023/04/16 01:46:42;;;;;;;;;;;15.50;63.50;;;;;;5030991;28;20011;-58
2023/04/16 01:49:07;;;;;;;;;;;15.60;63.40;;;;;;5030595;28;19917;-58
2023/04/16 01:51:33;;;;;;;;;;;15.50;63.30;;;;;;5030709;28;19913;-58
2023/04/16 01:53:58;;;;;;;;;;;15.60;63.30;;;;;;5030560;28;19913;-58
2023/04/16 01:56:24;;;;;;;;;;;15.50;63.30;;;;;;5030594;28;19939;-58
2023/04/16 01:58:49;;;;;;;;;;;15.50;63.20;;;;;;5033439;28;20288;-58
2023/04/16 02:01:15;;;;;;;;;;;15.50;63.10;;;;;;5033048;28;20008;-58
2023/04/16 02:03:40;;;;;;;;;;;15.40;63.10;;;;;;5033965;28;19913;-58
2023/04/16 02:06:06;;;;;;;;;;;15.50;63.30;;;;;;5033867;28;20380;-59
2023/04/16 02:08:31;;;;;;;;;;;15.40;63.30;;;;;;5033989;28;19920;-58
2023/04/16 02:10:57;;;;;;;;;;;15.40;63.40;;;;;;5033751;28;19917;-59
2023/04/16 02:13:24;;;;;;;;;;;15.50;63.40;;;;;;5033998;28;19971;-58
2023/04/16 02:15:50;;;;;;;;;;;15.60;63.30;;;;;;5034095;28;19913;-59
2023/04/16 02:18:16;;;;;;;;;;;15.50;63.10;;;;;;5033913;28;19921;-59
2023/04/16 02:20:42;;;;;;;;;;;15.50;63.10;;;;;;5033655;28;19920;-58
2023/04/16 02:23:08;;;;;;;;;;;15.50;63.00;;;;;;5034042;28;20003;-59
2023/04/16 02:25:40;;;;;;;;;;;15.50;63.00;;;;;;5033717;28;20437;-58
2023/04/16 02:28:08;;;;;;;;;;;15.50;63.10;;;;;;5033998;28;19913;-58
2023/04/16 02:30:35;;;;;;;;;;;15.60;63.10;;;;;;5033546;28;19921;-58
2023/04/16 02:33:03;;;;;;;;;;;15.60;63.10;;;;;;5033510;28;19960;-59
2023/04/16 02:35:29;;;;;;;;;;;15.70;63.10;;;;;;5042107;28;19962;-58
2023/04/16 02:37:54;;;;;;;;;;;15.70;62.90;;;;;;5053269;28;19913;-58
2023/04/16 02:40:20;;;;;;;;;;;15.70;62.80;;;;;;5052158;28;19928;-58
2023/04/16 02:42:46;;;;;;;;;;;15.70;62.90;;;;;;5050234;28;19960;-58
2023/04/16 02:45:11;;;;;;;;;;;15.80;62.90;;;;;;5033222;28;19917;-58
2023/04/16 02:47:37;;;;;;;;;;;15.80;62.70;;;;;;5033667;28;19917;-59
2023/04/16 02:50:02;;;;;;;;;;;15.70;62.60;;;;;;5033186;28;20372;-58
2023/04/16 02:52:28;;;;;;;;;;;15.80;62.70;;;;;;5033834;28;19913;-59
2023/04/16 02:54:53;;;;;;;;;;;15.80;62.60;;;;;;5033533;28;20416;-58
2023/04/16 02:57:19;;;;;;;;;;;15.80;62.60;;;;;;5033510;28;19964;-59
2023/04/16 02:59:44;;;;;;;;;;;15.80;62.50;;;;;;5032998;28;19997;-59
2023/04/16 03:02:10;;;;;;;;;;;15.80;62.40;;;;;;5033266;28;20007;-59
2023/04/16 03:04:35;;;;;;;;;;;15.80;62.40;;;;;;5033120;28;19913;-58
2023/04/16 03:07:01;;;;;;;;;;;15.80;62.40;;;;;;5033218;28;19913;-59
2023/04/16 03:09:26;;;;;;;;;;;15.70;62.30;;;;;;5032825;28;19964;-59
2023/04/16 03:11:52;;;;;;;;;;;15.70;62.50;;;;;;5032958;28;19917;-58
2023/04/16 03:14:17;;;;;;;;;;;15.60;62.50;;;;;;5032870;28;19913;-59
2023/04/16 03:16:43;;;;;;;;;;;15.70;62.40;;;;;;5032667;28;19917;-59
2023/04/16 03:19:08;;;;;;;;;;;15.70;62.50;;;;;;5032567;28;20004;-58
2023/04/16 03:21:34;;;;;;;;;;;15.70;62.40;;;;;;5032580;28;19980;-58
2023/04/16 03:23:59;;;;;;;;;;;15.70;62.50;;;;;;5032568;28;20004;-58
2023/04/16 03:26:24;;;;;;;;;;;15.60;62.50;;;;;;5031169;28;19963;-58
2023/04/16 03:28:50;;;;;;;;;;;15.60;62.50;;;;;;5032274;28;19921;-58
2023/04/16 03:31:15;;;;;;;;;;;15.60;62.50;;;;;;5032432;28;20292;-62
2023/04/16 03:33:41;;;;;;;;;;;15.60;62.30;;;;;;5032428;28;19928;-58
2023/04/16 03:36:07;;;;;;;;;;;15.60;62.50;;;;;;5045954;28;19923;-58
2023/04/16 03:38:32;;;;;;;;;;;15.60;62.60;;;;;;5052436;28;19935;-59
2023/04/16 03:40:57;;;;;;;;;;;15.60;62.60;;;;;;5052232;28;19916;-64
2023/04/16 03:43:23;;;;;;;;;;;15.60;62.60;;;;;;5044016;28;19959;-60
2023/04/16 03:45:48;;;;;;;;;;;15.60;62.40;;;;;;5032383;28;19911;-58
2023/04/16 03:48:14;;;;;;;;;;;15.60;62.30;;;;;;5032547;28;20003;-59
2023/04/16 03:50:43;;;;;;;;;;;15.60;62.20;;;;;;5032120;28;19914;-59
2023/04/16 03:53:09;;;;;;;;;;;15.50;62.10;;;;;;5032572;28;19917;-58
2023/04/16 03:55:35;;;;;;;;;;;15.50;62.10;;;;;;5031981;28;19963;-58
2023/04/16 03:58:02;;;;;;;;;;;15.40;62.00;;;;;;5032189;28;19924;-58
2023/04/16 04:00:28;;;;;;;;;;;15.40;62.10;;;;;;5031819;28;19917;-58
2023/04/16 04:02:53;;;;;;;;;;;15.30;62.20;;;;;;5032281;28;19921;-58
2023/04/16 04:05:19;;;;;;;;;;;15.30;62.20;;;;;;5031815;28;20381;-58
2023/04/16 04:07:44;;;;;;;;;;;15.30;62.20;;;;;;5032130;28;19913;-58
2023/04/16 04:10:10;;;;;;;;;;;15.30;62.10;;;;;;5031849;28;19924;-60
2023/04/16 04:12:35;;;;;;;;;;;15.20;62.10;;;;;;5032096;28;19913;-59
2023/04/16 04:15:00;;;;;;;;;;;15.20;62.10;;;;;;5031421;28;19920;-58
2023/04/16 04:17:26;;;;;;;;;;;15.20;62.00;;;;;;5031962;28;19963;-59
2023/04/16 04:19:52;;;;;;;;;;;15.20;62.10;;;;;;5030753;28;19913;-59
2023/04/16 04:22:18;;;;;;;;;;;15.10;61.90;;;;;;5031600;28;19917;-61
2023/04/16 04:24:43;;;;;;;;;;;15.10;62.00;;;;;;5031724;28;19913;-59
2023/04/16 04:27:09;;;;;;;;;;;15.10;62.10;;;;;;5031799;28;20350;-59
2023/04/16 04:29:34;;;;;;;;;;;15.00;62.20;;;;;;5031445;28;19921;-58
2023/04/16 04:32:00;;;;;;;;;;;15.10;62.20;;;;;;5031688;28;19913;-59
2023/04/16 04:34:25;;;;;;;;;;;15.10;62.20;;;;;;5031223;28;20335;-58
2023/04/16 04:36:51;;;;;;;;;;;15.10;62.20;;;;;;5051227;28;19917;-58
2023/04/16 04:39:16;;;;;;;;;;;15.10;62.10;;;;;;5051343;28;19935;-58
2023/04/16 04:41:42;;;;;;;;;;;15.10;62.10;;;;;;5051449;28;19913;-58
2023/04/16 04:44:07;;;;;;;;;;;15.10;61.90;;;;;;5036896;28;19949;-58
2023/04/16 04:46:32;;;;;;;;;;;15.10;61.90;;;;;;5031429;28;19913;-59
2023/04/16 04:48:58;;;;;;;;;;;15.10;62.00;;;;;;5031291;28;19913;-58
2023/04/16 04:51:23;;;;;;;;;;;15.00;62.00;;;;;;5031500;28;19913;-59
2023/04/16 04:53:49;;;;;;;;;;;15.00;62.10;;;;;;5031386;28;19936;-59
2023/04/16 04:56:14;;;;;;;;;;;15.00;62.10;;;;;;5031012;28;20022;-58
2023/04/16 04:58:40;;;;;;;;;;;15.00;62.00;;;;;;5031168;28;19936;-64
2023/04/16 05:01:05;;;;;;;;;;;15.00;61.90;;;;;;5031150;28;19909;-59
2023/04/16 05:03:31;;;;;;;;;;;15.00;61.70;;;;;;5031462;28;19913;-57
2023/04/16 05:05:56;;;;;;;;;;;15.00;62.00;;;;;;5030747;28;20312;-57
2023/04/16 05:08:22;;;;;;;;;;;15.00;62.00;;;;;;5031444;28;19936;-57
2023/04/16 05:10:47;;;;;;;;;;;15.00;62.00;;;;;;5030991;28;19920;-58
2023/04/16 05:13:12;;;;;;;;;;;15.00;61.90;;;;;;5031285;28;19928;-58
2023/04/16 05:15:38;;;;;;;;;;;15.00;61.90;;;;;;5030996;28;20358;-58
2023/04/16 05:18:03;;;;;;;;;;;15.00;61.80;;;;;;5031414;28;20419;-58
2023/04/16 05:20:29;;;;;;;;;;;15.00;61.80;;;;;;5030854;28;19984;-58
2023/04/16 05:22:54;;;;;;;;;;;15.00;61.90;;;;;;5031533;28;19944;-58
2023/04/16 05:25:20;;;;;;;;;;;15.00;61.80;;;;;;5031272;28;19917;-58
2023/04/16 05:27:45;;;;;;;;;;;15.00;61.70;;;;;;5031331;28;19971;-58
2023/04/16 05:30:11;;;;;;;;;;;15.00;61.90;;;;;;5030750;28;19920;-58
2023/04/16 05:32:37;;;;;;;;;;;15.00;61.60;;;;;;5033529;28;19920;-58
2023/04/16 05:35:03;;;;;;;;;;;15.00;61.60;;;;;;5039456;28;19916;-58
2023/04/16 05:37:28;;;;;;;;;;;15.00;61.60;;;;;;5054993;28;20008;-59
2023/04/16 05:39:54;;;;;;;;;;;15.00;61.70;;;;;;5054676;28;19926;-59
2023/04/16 05:42:19;;;;;;;;;;;15.00;61.70;;;;;;5054371;28;19913;-59
2023/04/16 05:44:45;;;;;;;;;;;15.00;61.50;;;;;;5034872;28;19913;-59
2023/04/16 05:47:10;;;;;;;;;;;15.00;61.60;;;;;;5034655;28;19940;-58
2023/04/16 05:49:36;;;;;;;;;;;15.00;61.70;;;;;;5034391;28;19960;-59
2023/04/16 05:52:02;;;;;;;;;;;15.00;61.70;;;;;;5034605;28;20005;-59
2023/04/16 05:54:27;;;;;;;;;;;15.00;61.80;;;;;;5034609;28;20013;-58
2023/04/16 05:56:53;;;;;;;;;;;15.10;61.80;;;;;;5034567;28;20007;-60
2023/04/16 05:59:18;;;;;;;;;;;15.10;61.70;;;;;;5034076;28;20388;-59
2023/04/16 06:01:44;;;;;;;;;;;15.10;61.70;;;;;;5034515;28;19913;-59
2023/04/16 06:04:09;;;;;;;;;;;15.10;61.60;;;;;;5033974;28;19913;-58
2023/04/16 06:06:36;;;;;;;;;;;15.10;61.60;;;;;;5034036;28;19975;-58
2023/04/16 06:09:02;;;;;;;;;;;15.20;61.70;;;;;;5027108;28;20427;-59
2023/04/16 06:11:28;;;;;;;;;;;15.20;61.60;;;;;;5017056;28;20381;-59
2023/04/16 06:13:53;;;;;;;;;;;15.30;61.70;;;;;;5031706;28;19955;-57
2023/04/16 06:16:19;;;;;;;;;;;15.30;61.80;;;;;;5026459;28;20009;-59
2023/04/16 06:18:44;;;;;;;;;;;15.30;61.60;;;;;;5028323;28;19918;-57
2023/04/16 06:21:10;;;;;;;;;;;15.30;61.30;;;;;;5033659;28;19925;-58
2023/04/16 06:23:35;;;;;;;;;;;15.30;61.40;;;;;;5025314;28;19943;-58
2023/04/16 06:26:01;;;;;;;;;;;15.30;61.30;;;;;;5026589;28;19913;-59
2023/04/16 06:28:26;;;;;;;;;;;15.30;61.40;;;;;;5024347;28;19925;-58
2023/04/16 06:30:51;;;;;;;;;;;15.40;61.30;;;;;;5033086;28;19916;-59
2023/04/16 06:33:17;;;;;;;;;;;15.40;61.40;;;;;;5033047;28;20300;-58
2023/04/16 06:35:42;;;;;;;;;;;15.50;61.60;;;;;;5034079;28;20365;-58
2023/04/16 06:38:08;;;;;;;;;;;15.50;61.30;;;;;;5033922;28;20325;-58
2023/04/16 06:40:35;;;;;;;;;;;15.50;61.20;;;;;;5033632;28;19921;-58
2023/04/16 06:43:01;;;;;;;;;;;15.60;61.20;;;;;;5033373;28;20043;-59
2023/04/16 06:45:26;;;;;;;;;;;15.60;61.10;;;;;;5033457;28;19975;-59
2023/04/16 06:47:52;;;;;;;;;;;15.60;60.90;;;;;;5033959;28;20394;-58
2023/04/16 06:50:17;;;;;;;;;;;15.70;60.50;;;;;;5033172;28;20278;-58
2023/04/16 06:52:42;;;;;;;;;;;15.60;60.30;;;;;;5033757;28;20396;-59
2023/04/16 06:55:08;;;;;;;;;;;15.60;60.30;;;;;;5033623;28;19913;-58
2023/04/16 06:57:34;;;;;;;;;;;15.60;60.30;;;;;;5032683;28;19920;-63
2023/04/16 07:00:00;;;;;;;;;;;15.60;60.30;;;;;;5033353;28;19944;-58
2023/04/16 07:02:25;;;;;;;;;;;15.70;60.20;;;;;;5032594;28;19968;-57
2023/04/16 07:04:51;;;;;;;;;;;15.70;60.30;;;;;;5033075;28;19917;-60
2023/04/16 07:07:17;;;;;;;;;;;15.70;60.00;;;;;;5029779;28;19967;-58
2023/04/16 07:09:42;;;;;;;;;;;15.80;60.60;;;;;;5033263;28;20365;-58
2023/04/16 07:12:07;;;;;;;;;;;15.80;60.50;;;;;;5032761;28;20345;-58
2023/04/16 07:14:33;;;;;;;;;;;16.00;60.80;;;;;;5032822;28;19914;-58
2023/04/16 07:16:58;;;;;;;;;;;16.00;60.70;;;;;;5031789;28;19921;-58
2023/04/16 07:19:24;;;;;;;;;;;16.20;60.80;;;;;;5031722;28;20278;-58
2023/04/16 07:21:50;;;;;;;;;;;16.20;60.70;;;;;;5032730;28;20365;-59
2023/04/16 07:24:16;;;;;;;;;;;16.30;60.60;;;;;;5032853;28;20363;-60
2023/04/16 07:26:41;;;;;;;;;;;16.30;59.70;;;;;;5032838;28;19913;-59
2023/04/16 07:29:06;;;;;;;;;;;16.30;59.00;;;;;;5031839;28;20144;-59
2023/04/16 07:31:32;;;;;;;;;;;16.20;59.00;;;;;;5032367;28;19913;-58
2023/04/16 07:33:58;;;;;;;;;;;16.20;59.30;;;;;;5032149;28;19967;-59
2023/04/16 07:36:23;;;;;;;;;;;16.20;59.60;;;;;;5033561;28;19971;-58
2023/04/16 07:38:48;;;;;;;;;;;16.20;59.10;;;;;;5030649;28;19917;-57
2023/04/16 07:41:14;;;;;;;;;;;16.20;59.30;;;;;;5031894;28;19967;-58
2023/04/16 07:43:39;;;;;;;;;;;16.30;59.70;;;;;;5032682;28;19917;-58
2023/04/16 07:46:05;;;;;;;;;;;16.40;59.80;;;;;;5032172;28;19916;-58
2023/04/16 07:48:31;;;;;;;;;;;16.40;60.00;;;;;;5032546;28;19992;-59
2023/04/16 07:50:56;;;;;;;;;;;16.50;59.90;;;;;;5032156;28;19914;-60
2023/04/16 07:53:21;;;;;;;;;;;16.60;60.00;;;;;;5032329;28;19925;-57
2023/04/16 07:55:47;;;;;;;;;;;16.70;60.00;;;;;;5031476;28;19918;-60
2023/04/16 07:58:12;;;;;;;;;;;16.80;59.40;;;;;;5032546;28;19995;-62
2023/04/16 08:00:38;;;;;;;;;;;16.80;58.90;;;;;;5032158;28;19963;-59
2023/04/16 08:03:03;;;;;;;;;;;16.90;58.90;;;;;;5031908;28;19979;-60
2023/04/16 08:05:29;;;;;;;;;;;17.00;59.10;;;;;;5028382;28;19947;-60
2023/04/16 08:07:54;;;;;;;;;;;17.20;59.70;;;;;;5032311;28;19932;-59
2023/04/16 08:10:20;;;;;;;;;;;17.30;59.40;;;;;;5032326;28;19921;-58
2023/04/16 08:12:45;;;;;;;;;;;17.50;59.00;;;;;;5032414;28;19913;-61
2023/04/16 08:15:11;;;;;;;;;;;17.50;58.30;;;;;;5031880;28;19917;-62
2023/04/16 08:17:37;;;;;;;;;;;17.50;57.70;;;;;;5031934;28;19956;-63
2023/04/16 08:20:02;;;;;;;;;;;17.60;57.70;;;;;;5031812;28;19917;-62
2023/04/16 08:22:28;;;;;;;;;;;17.70;58.10;;;;;;5031981;28;19920;-63
2023/04/16 08:24:53;;;;;;;;;;;17.70;57.70;;;;;;5032150;28;19967;-62
2023/04/16 08:27:19;;;;;;;;;;;17.80;57.40;;;;;;5031947;28;20360;-62
2023/04/16 08:29:44;;;;;;;;;;;17.80;57.30;;;;;;5031573;28;19923;-62
2023/04/16 08:32:10;;;;;;;;;;;17.90;57.40;;;;;;5031918;28;19920;-62
2023/04/16 08:34:36;;;;;;;;;;;18.00;57.20;;;;;;5048111;28;20397;-62
2023/04/16 08:37:01;;;;;;;;;;;18.20;57.10;;;;;;5051496;28;20011;-63
2023/04/16 08:39:27;;;;;;;;;;;18.30;56.80;;;;;;5050184;28;19925;-66
2023/04/16 08:41:52;;;;;;;;;;;18.50;57.00;;;;;;5037703;28;19975;-61
2023/04/16 08:44:30;;;;;;;;;;;18.70;57.20;;;;;;5031357;28;19920;-62
2023/04/16 08:46:56;;;;;;;;;;;18.80;57.00;;;;;;5031946;28;19921;-62
2023/04/16 08:49:23;;;;;;;;;;;19.00;56.20;;;;;;5031693;28;20265;-62
2023/04/16 08:51:50;;;;;;;;;;;19.10;55.90;;;;;;5031371;28;19917;-62
2023/04/16 08:54:17;;;;;;;;;;;19.20;55.20;;;;;;5031424;28;19913;-61
2023/04/16 08:56:43;;;;;;;;;;;19.30;54.50;;;;;;5031445;28;19921;-61
2023/04/16 08:59:08;;;;;;;;;;;19.30;54.00;;;;;;5031349;28;20419;-62
2023/04/16 09:01:34;;;;;;;;;;;19.30;54.30;;;;;;5031550;28;20384;-62
2023/04/16 09:04:03;;;;;;;;;;;19.30;54.00;;;;;;5030921;28;19918;-63
2023/04/16 09:06:28;;;;;;;;;;;19.40;54.20;;;;;;5032240;28;19913;-62
2023/04/16 09:08:55;;;;;;;;;;;19.40;54.40;;;;;;5035331;28;19920;-62
2023/04/16 09:11:20;;;;;;;;;;;19.50;54.30;;;;;;5035227;28;20258;-62
2023/04/16 09:13:46;;;;;;;;;;;19.60;53.90;;;;;;5035075;28;19935;-61
2023/04/16 09:16:12;;;;;;;;;;;19.70;54.40;;;;;;5034660;28;20494;-61
2023/04/16 09:18:37;;;;;;;;;;;19.80;53.70;;;;;;5035093;28;19975;-61
2023/04/16 09:21:03;;;;;;;;;;;19.70;52.80;;;;;;5034835;28;20258;-63
2023/04/16 09:23:29;;;;;;;;;;;19.60;52.70;;;;;;5034991;28;20380;-61
2023/04/16 09:25:57;;;;;;;;;;;19.60;53.40;;;;;;5032880;28;19992;-62
2023/04/16 09:28:42;;;;;;;;;;;19.50;53.40;;;;;;5030875;28;19925;-62
2023/04/16 09:31:14;;;;;;;;;;;19.50;52.80;;;;;;5034402;28;19921;-62
2023/04/16 09:33:41;;;;;;;;;;;19.30;52.80;;;;;;5035010;28;20300;-61
2023/04/16 09:36:07;;;;;;;;;;;19.30;52.90;;;;;;5030323;28;19918;-62
2023/04/16 09:38:50;;;;;;;;;;;19.30;52.90;;;;;;5025541;28;19937;-61
2023/04/16 09:41:15;;;;;;;;;;;19.30;52.90;;;;;;5024556;28;19917;-61
2023/04/16 09:43:47;;;;;;;;;;;19.30;52.40;;;;;;5034305;28;19913;-61
2023/04/16 09:46:13;;;;;;;;;;;19.30;52.30;;;;;;5032986;28;20262;-61
2023/04/16 09:48:38;;;;;;;;;;;19.30;52.00;;;;;;5032594;28;19921;-61
2023/04/16 09:51:05;;;;;;;;;;;19.30;51.90;;;;;;5028737;28;20237;-59
2023/04/16 09:53:30;;;;;;;;;;;19.30;51.20;;;;;;5045642;28;19948;-62
2023/04/16 09:55:57;;;;;;;;;;;19.30;50.90;;;;;;5026569;28;19914;-61
2023/04/16 09:58:25;;;;;;;;;;;19.20;51.00;;;;;;5024510;28;19917;-62
2023/04/16 10:00:54;;;;;;;;;;;19.20;50.40;;;;;;5016793;28;20354;-61
2023/04/16 10:03:27;;;;;;;;;;;19.10;50.50;;;;;;5028739;28;19932;-62
2023/04/16 10:05:53;;;;;;;;;;;19.00;50.80;;;;;;5014239;28;19917;-61
2023/04/16 10:08:18;;;;;;;;;;;19.00;50.50;;;;;;5020612;28;19917;-61
2023/04/16 10:10:43;;;;;;;;;;;19.10;50.20;;;;;;5032692;28;19916;-63
2023/04/16 10:13:09;;;;;;;;;;;19.10;49.70;;;;;;5020716;28;19921;-63
2023/04/16 10:15:34;;;;;;;;;;;19.10;49.80;;;;;;5014793;28;19925;-61
2023/04/16 10:18:01;;;;;;;;;;;19.20;50.20;;;;;;5031270;28;20385;-62
2023/04/16 10:20:26;;;;;;;;;;;19.20;49.90;;;;;;5032621;28;20027;-61
2023/04/16 10:22:52;;;;;;;;;;;19.10;49.90;;;;;;5034065;28;20037;-61
2023/04/16 10:25:18;;;;;;;;;;;19.00;50.10;;;;;;5029831;28;19925;-62
2023/04/16 10:27:43;;;;;;;;;;;19.00;49.90;;;;;;5034233;28;19936;-61
2023/04/16 10:30:09;;;;;;;;;;;18.80;49.90;;;;;;5032049;28;19924;-62
2023/04/16 10:32:35;;;;;;;;;;;18.70;49.80;;;;;;5031371;28;19920;-59
2023/04/16 10:35:01;;;;;;;;;;;18.60;50.30;;;;;;5022840;28;19912;-59
2023/04/16 10:37:30;;;;;;;;;;;18.50;50.60;;;;;;5046606;28;20325;-59
2023/04/16 10:39:56;;;;;;;;;;;18.40;50.90;;;;;;5033234;28;19995;-60
2023/04/16 10:42:22;;;;;;;;;;;18.30;51.00;;;;;;5032353;28;19983;-60
2023/04/16 10:44:50;;;;;;;;;;;18.30;51.40;;;;;;5033448;28;20328;-61
2023/04/16 10:47:16;;;;;;;;;;;18.10;51.70;;;;;;5032991;28;20325;-59
2023/04/16 10:49:42;;;;;;;;;;;18.00;51.70;;;;;;5033326;28;19917;-60
2023/04/16 10:52:17;;;;;;;;;;;17.80;51.70;;;;;;5018952;28;20009;-59
2023/04/16 10:54:42;;;;;;;;;;;17.80;52.40;;;;;;5013414;28;20345;-59
2023/04/16 10:57:09;;;;;;;;;;;17.60;52.70;;;;;;5029567;28;19948;-58
2023/04/16 10:59:35;;;;;;;;;;;17.50;53.20;;;;;;5031687;28;19927;-58
2023/04/16 11:02:05;;;;;;;;;;;17.50;53.50;;;;;;5033111;28;19917;-58
2023/04/16 11:04:33;;;;;;;;;;;17.40;53.70;;;;;;5032776;28;19921;-58
2023/04/16 11:07:07;;;;;;;;;;;17.40;53.80;;;;;;5032575;28;19967;-59
2023/04/16 11:09:48;;;;;;;;;;;17.40;54.00;;;;;;5031010;28;20032;-58
2023/04/16 11:12:15;;;;;;;;;;;17.40;54.10;;;;;;5033220;28;19921;-58
2023/04/16 11:14:41;;;;;;;;;;;17.40;54.20;;;;;;5031359;28;19927;-58
2023/04/16 11:17:06;;;;;;;;;;;17.50;54.40;;;;;;5032376;28;19925;-59
2023/04/16 11:19:34;;;;;;;;;;;17.50;54.40;;;;;;5030678;28;19978;-59
2023/04/16 11:22:00;;;;;;;;;;;17.50;54.70;;;;;;5031775;28;19948;-62
2023/04/16 11:24:28;;;;;;;;;;;17.60;54.70;;;;;;5032323;28;19968;-59
2023/04/16 11:26:54;;;;;;;;;;;17.50;54.60;;;;;;5030622;28;19920;-62
2023/04/16 11:29:19;;;;;;;;;;;17.40;55.00;;;;;;5032676;28;19913;-63
2023/04/16 11:31:51;;;;;;;;;;;17.40;55.20;;;;;;5029915;28;20004;-59
2023/04/16 11:34:17;;;;;;;;;;;17.30;55.30;;;;;;5041619;28;20373;-59
2023/04/16 11:36:43;;;;;;;;;;;17.20;55.70;;;;;;5050160;28;19923;-59
2023/04/16 11:39:08;;;;;;;;;;;17.30;55.80;;;;;;5031714;28;20350;-59
2023/04/16 11:41:40;;;;;;;;;;;17.30;55.70;;;;;;5032248;28;19913;-60
2023/04/16 11:44:15;;;;;;;;;;;17.30;55.20;;;;;;5019381;28;20047;-62
2023/04/16 11:46:41;;;;;;;;;;;17.30;55.20;;;;;;5010765;28;19921;-61
2023/04/16 11:49:06;;;;;;;;;;;17.30;55.10;;;;;;5029894;28;19917;-62
2023/04/16 11:51:32;;;;;;;;;;;17.40;54.90;;;;;;5012513;28;20286;-62
2023/04/16 11:53:57;;;;;;;;;;;17.50;54.70;;;;;;5012716;28;19996;-62
2023/04/16 11:56:27;;;;;;;;;;;17.50;54.30;;;;;;5012598;28;20018;-62
2023/04/16 11:59:06;;;;;;;;;;;17.50;53.90;;;;;;5030028;28;20369;-62
2023/04/16 12:01:32;;;;;;;;;;;17.60;54.10;;;;;;5031556;28;19924;-62
2023/04/16 12:04:00;;;;;;;;;;;17.70;53.60;;;;;;5030105;28;20396;-62
2023/04/16 12:06:26;;;;;;;;;;;17.70;53.00;;;;;;5031899;28;19913;-62
2023/04/16 12:08:51;;;;;;;;;;;17.70;52.80;;;;;;5031889;28;19936;-64
2023/04/16 12:11:17;;;;;;;;;;;17.70;53.00;;;;;;5030768;28;19919;-62
2023/04/16 12:14:02;;;;;;;;;;;17.70;52.60;;;;;;5031740;28;19913;-61
2023/04/16 12:16:28;;;;;;;;;;;17.70;52.90;;;;;;5030429;28;20020;-62
2023/04/16 12:19:00;;;;;;;;;;;17.60;53.70;;;;;;5031780;28;19975;-62
2023/04/16 12:21:34;;;;;;;;;;;17.50;54.50;;;;;;5030976;28;19920;-62
2023/04/16 12:24:00;;;;;;;;;;;17.40;54.90;;;;;;5028804;28;19921;-62
2023/04/16 12:26:25;;;;;;;;;;;17.40;55.10;;;;;;5021707;28;19967;-61
2023/04/16 12:28:51;;;;;;;;;;;17.30;55.60;;;;;;5031080;28;19928;-60
2023/04/16 12:31:16;;;;;;;;;;;17.20;56.20;;;;;;5030174;28;19916;-61
2023/04/16 12:33:42;;;;;;;;;;;17.20;56.80;;;;;;5031062;28;19914;-61
2023/04/16 12:36:17;;;;;;;;;;;17.10;57.10;;;;;;5028461;28;19979;-62
2023/04/16 12:38:42;;;;;;;;;;;17.00;57.70;;;;;;5030933;28;19923;-62
2023/04/16 12:41:08;;;;;;;;;;;17.00;58.20;;;;;;5029130;28;19913;-62
2023/04/16 12:43:35;;;;;;;;;;;16.90;58.80;;;;;;5030916;28;19924;-62
2023/04/16 12:46:00;;;;;;;;;;;17.00;59.40;;;;;;5019283;28;20236;-62
2023/04/16 12:48:26;;;;;;;;;;;17.00;59.60;;;;;;5030970;28;20381;-62
2023/04/16 12:50:52;;;;;;;;;;;17.00;60.00;;;;;;5016340;28;19917;-61
2023/04/16 12:53:17;;;;;;;;;;;17.00;60.60;;;;;;5011461;28;19921;-63
2023/04/16 12:55:44;;;;;;;;;;;17.10;60.70;;;;;;5023584;28;20375;-61
2023/04/16 12:58:09;;;;;;;;;;;17.30;60.90;;;;;;5031642;28;20246;-61
2023/04/16 13:00:35;;;;;;;;;;;17.30;61.00;;;;;;5030142;28;20035;-63
2023/04/16 13:03:00;;;;;;;;;;;17.50;60.90;;;;;;5031446;28;19913;-60
2023/04/16 13:05:26;;;;;;;;;;;17.70;60.90;;;;;;5029793;28;19917;-61
2023/04/16 13:07:51;;;;;;;;;;;17.80;60.90;;;;;;5031501;28;19952;-61
2023/04/16 13:10:17;;;;;;;;;;;18.00;61.20;;;;;;5020313;28;19921;-61
2023/04/16 13:12:42;;;;;;;;;;;18.20;61.00;;;;;;5016736;28;19913;-62
2023/04/16 13:15:08;;;;;;;;;;;18.30;60.60;;;;;;5014419;28;20388;-61
2023/04/16 13:17:33;;;;;;;;;;;18.30;60.10;;;;;;5027386;28;20368;-62
2023/04/16 13:19:59;;;;;;;;;;;18.50;59.80;;;;;;5030672;28;20016;-62
2023/04/16 13:22:24;;;;;;;;;;;18.50;59.70;;;;;;5029425;28;20427;-62
2023/04/16 13:24:50;;;;;;;;;;;18.60;59.90;;;;;;5025889;28;19935;-61
2023/04/16 13:27:15;;;;;;;;;;;18.70;60.40;;;;;;5030944;28;19920;-62
2023/04/16 13:29:41;;;;;;;;;;;18.80;60.70;;;;;;5033038;28;19967;-61
2023/04/16 13:32:06;;;;;;;;;;;19.00;60.50;;;;;;5014308;28;19913;-62
2023/04/16 13:34:32;;;;;;;;;;;19.10;60.80;;;;;;5029410;28;19964;-62
2023/04/16 13:36:57;;;;;;;;;;;19.20;60.70;;;;;;5033101;28;20293;-66
2023/04/16 13:39:22;;;;;;;;;;;19.30;59.90;;;;;;5025793;28;20418;-62
2023/04/16 13:41:49;;;;;;;;;;;19.40;59.90;;;;;;5011430;28;20431;-61
2023/04/16 13:44:14;;;;;;;;;;;19.50;59.60;;;;;;5014410;28;19940;-62
2023/04/16 13:46:42;;;;;;;;;;;19.50;59.80;;;;;;5030955;28;19914;-62
2023/04/16 13:49:07;;;;;;;;;;;19.70;59.60;;;;;;5027084;28;20365;-62
2023/04/16 13:51:33;;;;;;;;;;;19.70;58.60;;;;;;5011330;28;19921;-61
2023/04/16 13:53:58;;;;;;;;;;;19.70;58.10;;;;;;5025096;28;20355;-61
2023/04/16 13:56:24;;;;;;;;;;;19.70;58.00;;;;;;5034323;28;19924;-61
2023/04/16 13:58:51;;;;;;;;;;;19.80;58.30;;;;;;5033497;28;20293;-62
2023/04/16 14:01:16;;;;;;;;;;;19.80;58.50;;;;;;5034514;28;20027;-62
2023/04/16 14:03:42;;;;;;;;;;;19.90;58.10;;;;;;5023469;28;20444;-62
2023/04/16 14:06:07;;;;;;;;;;;20.00;57.90;;;;;;5015148;28;20327;-63
2023/04/16 14:08:32;;;;;;;;;;;20.10;57.80;;;;;;5022269;28;19920;-63
2023/04/16 14:10:58;;;;;;;;;;;20.20;57.40;;;;;;5031376;28;19913;-62